Aguilar, Colorado
Current Conditions -  °F | °C
As of 10:54 PM on Thursday 27 Nov 2014 (Local Time) from KTAD Reporting Station
Clear Clear  
Wind Chill: 31°   Ceiling: Unl
Heat Index: 38°   Visibility: 10mi
Dew Point: 22°   Wind: 10mph
Humidity: 53%   Direction: 290°WNW
Pressure: 30.19"   Gusts: NA
Location:  37.4°N, 104.65°W
Report Text: KTAD 280554Z AUTO 29009KT 10SM CLR 03/M06 A3019 RMK AO2 SLP201 T00331056 10133 20028 56004
Loading
Personal Weather Stations






























Interactive Weather Map New forecast layout! Learn more

10-Day Weather Forecast

Advertisements
Track Severe Weather on mobile